sensor_id;sensor_type;location;lat;lon;timestamp;temperature;humidity
1992;DHT22;997;48.448;8.924;2023-01-15T04:03:33;9.40;99.90
1992;DHT22;997;48.448;8.924;2023-01-15T04:06:00;9.40;99.90
1992;DHT22;997;48.448;8.924;2023-01-15T04:08:31;9.40;99.90
1992;DHT22;997;48.448;8.924;2023-01-15T04:10:59;9.40;99.90
1992;DHT22;997;48.448;8.924;2023-01-15T04:13:26;9.40;99.90
1992;DHT22;997;48.448;8.924;2023-01-15T04:15:53;9.50;99.90
1992;DHT22;997;48.448;8.924;2023-01-15T04:18:19;9.50;99.90
1992;DHT22;997;48.448;8.924;2023-01-15T04:20:46;9.50;99.90
1992;DHT22;997;48.448;8.924;2023-01-15T04:23:11;9.50;99.90
1992;DHT22;997;48.448;8.924;2023-01-15T04:25:38;9.60;99.90
1992;DHT22;997;48.448;8.924;2023-01-15T04:28:05;9.60;99.90
1992;DHT22;997;48.448;8.924;2023-01-15T04:30:31;9.60;99.90
1992;DHT22;997;48.448;8.924;2023-01-15T04:32:57;9.60;99.90
1992;DHT22;997;48.448;8.924;2023-01-15T04:35:23;9.60;99.90
1992;DHT22;997;48.448;8.924;2023-01-15T04:37:51;9.60;99.90
1992;DHT22;997;48.448;8.924;2023-01-15T04:40:18;9.70;99.90
1992;DHT22;997;48.448;8.924;2023-01-15T04:43:02;9.80;99.90
1992;DHT22;997;48.448;8.924;2023-01-15T04:45:46;9.80;99.90
1992;DHT22;997;48.448;8.924;2023-01-15T04:48:12;9.80;99.90
1992;DHT22;997;48.448;8.924;2023-01-15T04:50:38;9.80;99.90
1992;DHT22;997;48.448;8.924;2023-01-15T04:53:04;9.90;99.90
1992;DHT22;997;48.448;8.924;2023-01-15T04:58:09;9.90;99.90
1992;DHT22;997;48.448;8.924;2023-01-15T05:00:35;9.90;99.90
1992;DHT22;997;48.448;8.924;2023-01-15T05:03:00;10.00;99.90
1992;DHT22;997;48.448;8.924;2023-01-15T05:05:26;10.00;99.90
1992;DHT22;997;48.448;8.924;2023-01-15T05:07:52;10.10;99.90
1992;DHT22;997;48.448;8.924;2023-01-15T05:10:18;10.10;99.90
1992;DHT22;997;48.448;8.924;2023-01-15T05:12:44;10.10;99.90
1992;DHT22;997;48.448;8.924;2023-01-15T05:15:09;10.10;99.90
1992;DHT22;997;48.448;8.924;2023-01-15T05:17:35;10.20;99.90
1992;DHT22;997;48.448;8.924;2023-01-15T05:20:01;10.20;99.90
1992;DHT22;997;48.448;8.924;2023-01-15T05:22:26;10.20;99.90
1992;DHT22;997;48.448;8.924;2023-01-15T05:24:52;10.20;99.90
1992;DHT22;997;48.448;8.924;2023-01-15T05:27:17;10.30;99.90
1992;DHT22;997;48.448;8.924;2023-01-15T05:29:43;10.20;99.90
1992;DHT22;997;48.448;8.924;2023-01-15T05:32:09;10.30;99.90
1992;DHT22;997;48.448;8.924;2023-01-15T05:34:35;10.30;99.90
1992;DHT22;997;48.448;8.924;2023-01-15T05:37:00;10.20;99.90
1992;DHT22;997;48.448;8.924;2023-01-15T05:39:26;10.20;99.90
1992;DHT22;997;48.448;8.924;2023-01-15T05:41:52;10.20;99.90
1992;DHT22;997;48.448;8.924;2023-01-15T05:44:26;10.20;99.90
1992;DHT22;997;48.448;8.924;2023-01-15T05:46:58;10.20;99.90
1992;DHT22;997;48.448;8.924;2023-01-15T05:49:26;10.20;99.90
1992;DHT22;997;48.448;8.924;2023-01-15T05:51:53;10.20;99.90
1992;DHT22;997;48.448;8.924;2023-01-15T05:54:24;10.20;99.90
1992;DHT22;997;48.448;8.924;2023-01-15T05:56:51;10.20;99.90
1992;DHT22;997;48.448;8.924;2023-01-15T05:59:18;10.20;99.90
1992;DHT22;997;48.448;8.924;2023-01-15T06:01:44;10.10;99.90
1992;DHT22;997;48.448;8.924;2023-01-15T06:04:11;10.20;99.90
1992;DHT22;997;48.448;8.924;2023-01-15T06:06:42;10.20;99.90
1992;DHT22;997;48.448;8.924;2023-01-15T06:09:08;10.20;99.90
1992;DHT22;997;48.448;8.924;2023-01-15T06:11:34;10.10;99.90
1992;DHT22;997;48.448;8.924;2023-01-15T06:14:00;10.20;99.90
1992;DHT22;997;48.448;8.924;2023-01-15T06:16:26;10.20;99.90
1992;DHT22;997;48.448;8.924;2023-01-15T06:18:51;10.20;99.90
1992;DHT22;997;48.448;8.924;2023-01-15T06:21:17;10.30;99.90
1992;DHT22;997;48.448;8.924;2023-01-15T06:23:43;10.30;99.90
1992;DHT22;997;48.448;8.924;2023-01-15T06:26:14;10.30;99.90
1992;DHT22;997;48.448;8.924;2023-01-15T06:28:40;10.40;99.90
1992;DHT22;997;48.448;8.924;2023-01-15T06:31:12;10.50;99.90
1992;DHT22;997;48.448;8.924;2023-01-15T06:33:38;10.50;99.90
1992;DHT22;997;48.448;8.924;2023-01-15T06:36:15;10.40;99.90
1992;DHT22;997;48.448;8.924;2023-01-15T06:38:41;10.40;99.90
1992;DHT22;997;48.448;8.924;2023-01-15T06:41:11;10.50;99.90
1992;DHT22;997;48.448;8.924;2023-01-15T06:43:56;10.40;99.90
1992;DHT22;997;48.448;8.924;2023-01-15T06:46:44;10.10;99.90
1992;DHT22;997;48.448;8.924;2023-01-15T06:49:30;9.90;99.90
1992;DHT22;997;48.448;8.924;2023-01-15T06:51:56;9.70;99.90
1992;DHT22;997;48.448;8.924;2023-01-15T06:54:22;9.50;99.90
1992;DHT22;997;48.448;8.924;2023-01-15T06:56:47;9.40;99.90
1992;DHT22;997;48.448;8.924;2023-01-15T06:59:13;9.10;99.90
1992;DHT22;997;48.448;8.924;2023-01-15T07:01:39;9.00;99.90
1992;DHT22;997;48.448;8.924;2023-01-15T07:04:04;8.90;99.90
1992;DHT22;997;48.448;8.924;2023-01-15T07:06:30;8.90;99.90
1992;DHT22;997;48.448;8.924;2023-01-15T07:08:56;8.90;99.90
1992;DHT22;997;48.448;8.924;2023-01-15T07:11:22;8.70;99.90
1992;DHT22;997;48.448;8.924;2023-01-15T07:13:48;8.80;99.90
1992;DHT22;997;48.448;8.924;2023-01-15T07:16:14;8.70;99.90
1992;DHT22;997;48.448;8.924;2023-01-15T07:18:53;8.70;99.90
1992;DHT22;997;48.448;8.924;2023-01-15T07:21:19;8.70;99.90
1992;DHT22;997;48.448;8.924;2023-01-15T07:23:45;8.70;99.90
1992;DHT22;997;48.448;8.924;2023-01-15T07:26:10;8.70;99.90
1992;DHT22;997;48.448;8.924;2023-01-15T07:28:36;8.60;99.90
1992;DHT22;997;48.448;8.924;2023-01-15T07:31:02;8.50;99.90
1992;DHT22;997;48.448;8.924;2023-01-15T07:33:28;8.40;99.90
1992;DHT22;997;48.448;8.924;2023-01-15T07:35:54;8.20;99.90
1992;DHT22;997;48.448;8.924;2023-01-15T07:38:21;8.00;99.90
1992;DHT22;997;48.448;8.924;2023-01-15T07:40:46;7.70;99.90
1992;DHT22;997;48.448;8.924;2023-01-15T07:43:32;7.40;99.90
1992;DHT22;997;48.448;8.924;2023-01-15T07:46:16;7.40;99.90
1992;DHT22;997;48.448;8.924;2023-01-15T07:49:00;7.30;99.90
1992;DHT22;997;48.448;8.924;2023-01-15T07:51:44;7.50;99.90
1992;DHT22;997;48.448;8.924;2023-01-15T07:54:10;7.50;99.90
1992;DHT22;997;48.448;8.924;2023-01-15T07:56:36;7.30;99.90
1992;DHT22;997;48.448;8.924;2023-01-15T07:59:02;7.40;99.90
1992;DHT22;997;48.448;8.924;2023-01-15T08:01:28;7.40;99.90
1992;DHT22;997;48.448;8.924;2023-01-15T08:03:53;7.40;99.90
1992;DHT22;997;48.448;8.924;2023-01-15T08:06:19;7.40;99.90
1992;DHT22;997;48.448;8.924;2023-01-15T08:08:44;7.40;99.90
1992;DHT22;997;48.448;8.924;2023-01-15T08:11:10;7.20;99.90
1992;DHT22;997;48.448;8.924;2023-01-15T08:13:54;7.00;99.90
1992;DHT22;997;48.448;8.924;2023-01-15T08:16:38;6.80;99.90
1992;DHT22;997;48.448;8.924;2023-01-15T08:19:04;6.90;99.90
1992;DHT22;997;48.448;8.924;2023-01-15T08:21:29;6.90;99.90
1992;DHT22;997;48.448;8.924;2023-01-15T08:23:55;6.80;99.90
1992;DHT22;997;48.448;8.924;2023-01-15T08:26:21;6.90;99.90
1992;DHT22;997;48.448;8.924;2023-01-15T08:28:46;6.80;99.90
1992;DHT22;997;48.448;8.924;2023-01-15T08:31:12;6.80;99.90
1992;DHT22;997;48.448;8.924;2023-01-15T08:33:37;6.60;99.90
1992;DHT22;997;48.448;8.924;2023-01-15T08:36:03;6.60;99.90
1992;DHT22;997;48.448;8.924;2023-01-15T08:38:29;6.40;99.90
1992;DHT22;997;48.448;8.924;2023-01-15T08:40:55;6.40;99.90
1992;DHT22;997;48.448;8.924;2023-01-15T08:43:27;6.30;99.90
1992;DHT22;997;48.448;8.924;2023-01-15T08:45:55;6.20;99.90
1992;DHT22;997;48.448;8.924;2023-01-15T08:48:22;6.20;99.90
1992;DHT22;997;48.448;8.924;2023-01-15T08:50:48;6.20;99.90
1992;DHT22;997;48.448;8.924;2023-01-15T08:53:16;6.20;99.90
1992;DHT22;997;48.448;8.924;2023-01-15T08:55:43;6.40;99.90
1992;DHT22;997;48.448;8.924;2023-01-15T08:58:09;6.60;99.90
1992;DHT22;997;48.448;8.924;2023-01-15T09:00:35;6.70;99.90
1992;DHT22;997;48.448;8.924;2023-01-15T09:03:00;6.80;99.90
1992;DHT22;997;48.448;8.924;2023-01-15T09:05:26;6.80;99.90
1992;DHT22;997;48.448;8.924;2023-01-15T09:07:55;6.70;99.90
1992;DHT22;997;48.448;8.924;2023-01-15T09:10:21;6.90;99.90
1992;DHT22;997;48.448;8.924;2023-01-15T09:12:47;7.00;99.90
1992;DHT22;997;48.448;8.924;2023-01-15T09:15:13;6.90;99.90
1992;DHT22;997;48.448;8.924;2023-01-15T09:17:39;6.90;99.90
1992;DHT22;997;48.448;8.924;2023-01-15T09:20:10;6.70;99.90
1992;DHT22;997;48.448;8.924;2023-01-15T09:22:36;6.60;99.90
1992;DHT22;997;48.448;8.924;2023-01-15T09:25:02;6.40;99.90
1992;DHT22;997;48.448;8.924;2023-01-15T09:27:28;6.30;99.90
1992;DHT22;997;48.448;8.924;2023-01-15T09:29:54;6.30;99.90
1992;DHT22;997;48.448;8.924;2023-01-15T09:32:20;6.20;99.90
1992;DHT22;997;48.448;8.924;2023-01-15T09:34:46;6.10;99.90
1992;DHT22;997;48.448;8.924;2023-01-15T09:37:11;5.90;99.90
1992;DHT22;997;48.448;8.924;2023-01-15T09:39:37;5.90;99.90
1992;DHT22;997;48.448;8.924;2023-01-15T09:55:19;6.30;99.90
1992;DHT22;997;48.448;8.924;2023-01-15T09:57:50;6.30;99.90
1992;DHT22;997;48.448;8.924;2023-01-15T10:00:26;6.40;99.90
1992;DHT22;997;48.448;8.924;2023-01-15T10:03:12;6.40;99.90
1992;DHT22;997;48.448;8.924;2023-01-15T10:06:14;6.20;99.90
1992;DHT22;997;48.448;8.924;2023-01-15T10:08:45;5.90;99.90
1992;DHT22;997;48.448;8.924;2023-01-15T10:14:00;5.70;99.90
1992;DHT22;997;48.448;8.924;2023-01-15T10:16:30;5.80;99.90
1992;DHT22;997;48.448;8.924;2023-01-15T10:18:59;5.80;99.90
1992;DHT22;997;48.448;8.924;2023-01-15T10:26:37;5.80;99.90
1992;DHT22;997;48.448;8.924;2023-01-15T10:34:58;5.70;99.90
1992;DHT22;997;48.448;8.924;2023-01-15T10:37:42;5.50;99.90
1992;DHT22;997;48.448;8.924;2023-01-15T10:40:44;5.40;99.90
1992;DHT22;997;48.448;8.924;2023-01-15T10:45:56;5.40;99.90
1992;DHT22;997;48.448;8.924;2023-01-15T10:48:37;5.30;99.90
1992;DHT22;997;48.448;8.924;2023-01-15T10:51:16;5.10;99.90
1992;DHT22;997;48.448;8.924;2023-01-15T10:53:56;5.20;99.90
1992;DHT22;997;48.448;8.924;2023-01-15T11:01:54;5.20;99.90
1992;DHT22;997;48.448;8.924;2023-01-15T11:04:30;5.20;99.90
1992;DHT22;997;48.448;8.924;2023-01-15T11:06:57;5.30;99.90
1992;DHT22;997;48.448;8.924;2023-01-15T11:09:25;5.30;99.90
1992;DHT22;997;48.448;8.924;2023-01-15T11:14:44;5.10;99.90
1992;DHT22;997;48.448;8.924;2023-01-15T11:17:34;5.00;99.90
1992;DHT22;997;48.448;8.924;2023-01-15T11:20:33;5.00;99.90
1992;DHT22;997;48.448;8.924;2023-01-15T11:23:12;5.00;99.90
1992;DHT22;997;48.448;8.924;2023-01-15T11:25:46;4.90;99.90
1992;DHT22;997;48.448;8.924;2023-01-15T11:28:13;4.90;99.90
1992;DHT22;997;48.448;8.924;2023-01-15T11:30:40;4.90;99.90
1992;DHT22;997;48.448;8.924;2023-01-15T11:33:24;5.00;99.90
1992;DHT22;997;48.448;8.924;2023-01-15T11:35:52;4.90;99.90
1992;DHT22;997;48.448;8.924;2023-01-15T11:38:22;5.10;99.90
1992;DHT22;997;48.448;8.924;2023-01-15T11:40:53;5.00;99.90
1992;DHT22;997;48.448;8.924;2023-01-15T11:43:24;4.80;99.90
1992;DHT22;997;48.448;8.924;2023-01-15T11:46:38;4.70;99.90
1992;DHT22;997;48.448;8.924;2023-01-15T11:49:22;4.70;99.90
1992;DHT22;997;48.448;8.924;2023-01-15T11:52:10;4.70;99.90
1992;DHT22;997;48.448;8.924;2023-01-15T11:54:41;4.60;99.90
1992;DHT22;997;48.448;8.924;2023-01-15T11:57:07;4.60;99.90
1992;DHT22;997;48.448;8.924;2023-01-15T11:59:34;4.50;99.90
1992;DHT22;997;48.448;8.924;2023-01-15T12:02:28;4.40;99.90
1992;DHT22;997;48.448;8.924;2023-01-15T12:04:58;4.40;99.90
1992;DHT22;997;48.448;8.924;2023-01-15T12:07:25;4.30;99.90
1992;DHT22;997;48.448;8.924;2023-01-15T12:17:12;4.00;99.90
1992;DHT22;997;48.448;8.924;2023-01-15T12:29:26;3.80;99.90
1992;DHT22;997;48.448;8.924;2023-01-15T12:31:59;3.80;99.90
1992;DHT22;997;48.448;8.924;2023-01-15T12:37:22;3.80;99.90
1992;DHT22;997;48.448;8.924;2023-01-15T12:45:29;4.20;99.90
1992;DHT22;997;48.448;8.924;2023-01-15T12:53:22;4.80;99.90
1992;DHT22;997;48.448;8.924;2023-01-15T13:04:19;4.90;99.90
1992;DHT22;997;48.448;8.924;2023-01-15T13:06:51;4.80;99.90
1992;DHT22;997;48.448;8.924;2023-01-15T13:09:37;4.80;99.90
1992;DHT22;997;48.448;8.924;2023-01-15T13:12:13;4.80;99.90
1992;DHT22;997;48.448;8.924;2023-01-15T13:14:40;4.80;99.90
1992;DHT22;997;48.448;8.924;2023-01-15T13:22:46;4.70;99.90
1992;DHT22;997;48.448;8.924;2023-01-15T13:28:17;4.70;99.90
1992;DHT22;997;48.448;8.924;2023-01-15T13:33:41;4.70;99.90
1992;DHT22;997;48.448;8.924;2023-01-15T13:36:19;4.70;99.90
1992;DHT22;997;48.448;8.924;2023-01-15T13:38:52;4.70;99.90
1992;DHT22;997;48.448;8.924;2023-01-15T13:41:23;4.70;99.90
1992;DHT22;997;48.448;8.924;2023-01-15T13:44:19;4.70;99.90
1992;DHT22;997;48.448;8.924;2023-01-15T13:46:47;4.70;99.90
1992;DHT22;997;48.448;8.924;2023-01-15T13:49:27;4.80;99.90
1992;DHT22;997;48.448;8.924;2023-01-15T13:51:54;4.80;99.90
1992;DHT22;997;48.448;8.924;2023-01-15T13:54:25;4.70;99.90
1992;DHT22;997;48.448;8.924;2023-01-15T13:59:41;4.70;99.90
1992;DHT22;997;48.448;8.924;2023-01-15T14:02:27;4.70;99.90
1992;DHT22;997;48.448;8.924;2023-01-15T14:04:53;4.70;99.90
1992;DHT22;997;48.448;8.924;2023-01-15T14:07:29;4.70;99.90
1992;DHT22;997;48.448;8.924;2023-01-15T14:10:06;4.70;99.90
1992;DHT22;997;48.448;8.924;2023-01-15T14:28:57;5.10;99.90
1992;DHT22;997;48.448;8.924;2023-01-15T14:34:21;5.00;99.90
1992;DHT22;997;48.448;8.924;2023-01-15T14:42:06;4.90;99.90
1992;DHT22;997;48.448;8.924;2023-01-15T14:45:02;5.00;99.90
1992;DHT22;997;48.448;8.924;2023-01-15T14:47:49;5.00;99.90
1992;DHT22;997;48.448;8.924;2023-01-15T14:50:23;5.00;99.90
1992;DHT22;997;48.448;8.924;2023-01-15T14:53:29;5.00;99.90
1992;DHT22;997;48.448;8.924;2023-01-15T15:09:49;5.00;99.90
1992;DHT22;997;48.448;8.924;2023-01-15T15:12:23;5.00;99.90
1992;DHT22;997;48.448;8.924;2023-01-15T15:15:15;5.00;99.90
1992;DHT22;997;48.448;8.924;2023-01-15T15:18:01;4.90;99.90
1992;DHT22;997;48.448;8.924;2023-01-15T15:26:33;4.70;99.90
1992;DHT22;997;48.448;8.924;2023-01-15T15:34:31;4.60;99.90
1992;DHT22;997;48.448;8.924;2023-01-15T15:37:03;4.60;99.90
1992;DHT22;997;48.448;8.924;2023-01-15T15:42:20;4.50;99.90
1992;DHT22;997;48.448;8.924;2023-01-15T15:45:15;4.50;99.90
1992;DHT22;997;48.448;8.924;2023-01-15T15:53:45;4.50;99.90
1992;DHT22;997;48.448;8.924;2023-01-15T15:56:10;4.40;99.90
1992;DHT22;997;48.448;8.924;2023-01-15T15:58:36;4.40;99.90
1992;DHT22;997;48.448;8.924;2023-01-15T16:01:03;4.40;99.90
1992;DHT22;997;48.448;8.924;2023-01-15T16:03:30;4.40;99.90
1992;DHT22;997;48.448;8.924;2023-01-15T16:06:01;4.40;99.90
1992;DHT22;997;48.448;8.924;2023-01-15T16:08:30;4.40;99.90
1992;DHT22;997;48.448;8.924;2023-01-15T16:11:04;4.30;99.90
1992;DHT22;997;48.448;8.924;2023-01-15T16:13:47;4.30;99.90
1992;DHT22;997;48.448;8.924;2023-01-15T16:16:17;4.30;99.90
1992;DHT22;997;48.448;8.924;2023-01-15T16:18:46;4.20;99.90
1992;DHT22;997;48.448;8.924;2023-01-15T16:23:59;4.20;99.90
1992;DHT22;997;48.448;8.924;2023-01-15T16:26:39;4.20;99.90
1992;DHT22;997;48.448;8.924;2023-01-15T16:29:34;4.10;99.90
1992;DHT22;997;48.448;8.924;2023-01-15T16:32:01;4.10;99.90
1992;DHT22;997;48.448;8.924;2023-01-15T16:34:34;4.10;99.90
1992;DHT22;997;48.448;8.924;2023-01-15T16:37:01;4.00;99.90
1992;DHT22;997;48.448;8.924;2023-01-15T16:39:43;4.00;99.90
1992;DHT22;997;48.448;8.924;2023-01-15T16:42:34;4.00;99.90
1992;DHT22;997;48.448;8.924;2023-01-15T16:45:06;4.00;99.90
1992;DHT22;997;48.448;8.924;2023-01-15T16:48:08;3.90;99.90
1992;DHT22;997;48.448;8.924;2023-01-15T16:50:36;3.90;99.90
1992;DHT22;997;48.448;8.924;2023-01-15T16:53:05;3.90;99.90
1992;DHT22;997;48.448;8.924;2023-01-15T16:55:37;3.90;99.90
1992;DHT22;997;48.448;8.924;2023-01-15T16:58:30;3.90;99.90
1992;DHT22;997;48.448;8.924;2023-01-15T17:00:57;3.80;99.90
1992;DHT22;997;48.448;8.924;2023-01-15T17:03:25;3.70;99.90
1992;DHT22;997;48.448;8.924;2023-01-15T17:05:56;3.70;99.90
1992;DHT22;997;48.448;8.924;2023-01-15T17:08:35;3.70;99.90
1992;DHT22;997;48.448;8.924;2023-01-15T17:11:05;3.70;99.90
1992;DHT22;997;48.448;8.924;2023-01-15T17:13:34;3.60;99.90
1992;DHT22;997;48.448;8.924;2023-01-15T17:18:31;3.60;99.90
1992;DHT22;997;48.448;8.924;2023-01-15T17:20:58;3.60;99.90
1992;DHT22;997;48.448;8.924;2023-01-15T17:23:26;3.50;99.90
1992;DHT22;997;48.448;8.924;2023-01-15T17:25:53;3.50;99.90
1992;DHT22;997;48.448;8.924;2023-01-15T17:28:21;3.50;99.90
1992;DHT22;997;48.448;8.924;2023-01-15T17:30:50;3.50;99.90
1992;DHT22;997;48.448;8.924;2023-01-15T17:33:17;3.50;99.90
1992;DHT22;997;48.448;8.924;2023-01-15T17:35:43;3.40;99.90
1992;DHT22;997;48.448;8.924;2023-01-15T17:38:13;3.30;99.90
1992;DHT22;997;48.448;8.924;2023-01-15T17:40:39;3.30;99.90
1992;DHT22;997;48.448;8.924;2023-01-15T18:47:49;2.70;99.90
1992;DHT22;997;48.448;8.924;2023-01-15T18:50:15;2.70;99.90
1992;DHT22;997;48.448;8.924;2023-01-15T18:52:40;2.70;99.90
1992;DHT22;997;48.448;8.924;2023-01-15T18:55:16;2.70;99.90
1992;DHT22;997;48.448;8.924;2023-01-15T18:57:43;2.70;99.90
1992;DHT22;997;48.448;8.924;2023-01-15T19:00:09;2.60;99.90
1992;DHT22;997;48.448;8.924;2023-01-15T19:02:36;2.60;99.90
1992;DHT22;997;48.448;8.924;2023-01-15T19:05:02;2.60;99.90
1992;DHT22;997;48.448;8.924;2023-01-15T19:10:13;2.70;99.90
1992;DHT22;997;48.448;8.924;2023-01-15T19:12:39;2.70;99.90
1992;DHT22;997;48.448;8.924;2023-01-15T19:15:06;2.60;99.90
1992;DHT22;997;48.448;8.924;2023-01-15T19:17:50;2.60;99.90
1992;DHT22;997;48.448;8.924;2023-01-15T19:20:36;2.70;99.90
1992;DHT22;997;48.448;8.924;2023-01-15T19:23:02;2.70;99.90
1992;DHT22;997;48.448;8.924;2023-01-15T19:25:45;2.70;99.90
1992;DHT22;997;48.448;8.924;2023-01-15T19:28:13;2.70;99.90
1992;DHT22;997;48.448;8.924;2023-01-15T19:30:40;2.70;99.90
1992;DHT22;997;48.448;8.924;2023-01-15T19:33:07;2.70;99.90
1992;DHT22;997;48.448;8.924;2023-01-15T19:35:34;2.80;99.90
1992;DHT22;997;48.448;8.924;2023-01-15T19:38:01;2.70;99.90
1992;DHT22;997;48.448;8.924;2023-01-15T19:40:27;2.70;99.90
1992;DHT22;997;48.448;8.924;2023-01-15T19:45:21;2.70;99.90
1992;DHT22;997;48.448;8.924;2023-01-15T19:48:10;2.80;99.90
1992;DHT22;997;48.448;8.924;2023-01-15T19:50:55;2.80;99.90
1992;DHT22;997;48.448;8.924;2023-01-15T19:53:20;2.70;99.90
1992;DHT22;997;48.448;8.924;2023-01-15T19:55:46;2.80;99.90
1992;DHT22;997;48.448;8.924;2023-01-15T19:58:13;2.80;99.90
1992;DHT22;997;48.448;8.924;2023-01-15T20:00:42;2.80;99.90
1992;DHT22;997;48.448;8.924;2023-01-15T20:03:10;2.80;99.90
1992;DHT22;997;48.448;8.924;2023-01-15T20:05:37;2.90;99.90
1992;DHT22;997;48.448;8.924;2023-01-15T20:08:03;2.90;99.90
1992;DHT22;997;48.448;8.924;2023-01-15T20:10:29;2.90;99.90
1992;DHT22;997;48.448;8.924;2023-01-15T20:12:59;2.90;99.90
1992;DHT22;997;48.448;8.924;2023-01-15T20:15:43;2.90;99.90
1992;DHT22;997;48.448;8.924;2023-01-15T20:18:12;2.80;99.90
1992;DHT22;997;48.448;8.924;2023-01-15T20:20:38;2.80;99.90
1992;DHT22;997;48.448;8.924;2023-01-15T20:23:05;2.70;99.90
1992;DHT22;997;48.448;8.924;2023-01-15T20:25:31;2.70;99.90
1992;DHT22;997;48.448;8.924;2023-01-15T20:27:58;2.70;99.90
1992;DHT22;997;48.448;8.924;2023-01-15T20:30:25;2.70;99.90
1992;DHT22;997;48.448;8.924;2023-01-15T20:32:52;2.60;99.90
1992;DHT22;997;48.448;8.924;2023-01-15T20:35:21;2.60;99.90
1992;DHT22;997;48.448;8.924;2023-01-15T20:37:48;2.60;99.90
1992;DHT22;997;48.448;8.924;2023-01-15T20:40:16;2.70;99.90
1992;DHT22;997;48.448;8.924;2023-01-15T20:42:42;2.60;99.90
1992;DHT22;997;48.448;8.924;2023-01-15T20:45:26;2.60;99.90
1992;DHT22;997;48.448;8.924;2023-01-15T20:47:52;2.60;99.90
1992;DHT22;997;48.448;8.924;2023-01-15T20:50:39;2.60;99.90
1992;DHT22;997;48.448;8.924;2023-01-15T20:53:06;2.60;99.90
1992;DHT22;997;48.448;8.924;2023-01-15T20:55:32;2.70;99.90
1992;DHT22;997;48.448;8.924;2023-01-15T20:58:05;2.60;99.90
1992;DHT22;997;48.448;8.924;2023-01-15T21:00:32;2.70;99.90
1992;DHT22;997;48.448;8.924;2023-01-15T21:02:59;2.70;99.90
1992;DHT22;997;48.448;8.924;2023-01-15T21:05:28;2.70;99.90
1992;DHT22;997;48.448;8.924;2023-01-15T21:07:54;2.70;99.90
1992;DHT22;997;48.448;8.924;2023-01-15T21:10:20;2.70;99.90
1992;DHT22;997;48.448;8.924;2023-01-15T21:12:47;2.70;99.90
1992;DHT22;997;48.448;8.924;2023-01-15T21:15:14;2.70;99.90
1992;DHT22;997;48.448;8.924;2023-01-15T21:17:40;2.70;99.90
1992;DHT22;997;48.448;8.924;2023-01-15T21:20:07;2.60;99.90
1992;DHT22;997;48.448;8.924;2023-01-15T21:22:34;2.50;99.90
1992;DHT22;997;48.448;8.924;2023-01-15T21:25:00;2.60;99.90
1992;DHT22;997;48.448;8.924;2023-01-15T21:27:26;2.50;99.90
1992;DHT22;997;48.448;8.924;2023-01-15T21:29:51;2.50;99.90
1992;DHT22;997;48.448;8.924;2023-01-15T21:32:17;2.50;99.90
1992;DHT22;997;48.448;8.924;2023-01-15T21:34:43;2.60;99.90
1992;DHT22;997;48.448;8.924;2023-01-15T21:37:09;2.50;99.90
1992;DHT22;997;48.448;8.924;2023-01-15T21:39:34;2.60;99.90
1992;DHT22;997;48.448;8.924;2023-01-15T21:42:02;2.60;99.90
1992;DHT22;997;48.448;8.924;2023-01-15T21:44:46;2.60;99.90
1992;DHT22;997;48.448;8.924;2023-01-15T21:47:14;2.60;99.90
1992;DHT22;997;48.448;8.924;2023-01-15T21:49:41;2.60;99.90
1992;DHT22;997;48.448;8.924;2023-01-15T21:52:17;2.60;99.90
1992;DHT22;997;48.448;8.924;2023-01-15T21:54:44;2.60;99.90
1992;DHT22;997;48.448;8.924;2023-01-15T21:57:11;2.60;99.90
1992;DHT22;997;48.448;8.924;2023-01-15T21:59:37;2.60;99.90
1992;DHT22;997;48.448;8.924;2023-01-15T22:02:03;2.60;99.90
1992;DHT22;997;48.448;8.924;2023-01-15T22:04:32;2.70;99.90
1992;DHT22;997;48.448;8.924;2023-01-15T22:06:58;2.70;99.90
1992;DHT22;997;48.448;8.924;2023-01-15T22:09:24;2.70;99.90
1992;DHT22;997;48.448;8.924;2023-01-15T22:11:50;2.70;99.90
1992;DHT22;997;48.448;8.924;2023-01-15T22:14:52;2.70;99.90
1992;DHT22;997;48.448;8.924;2023-01-15T22:17:22;2.70;99.90
1992;DHT22;997;48.448;8.924;2023-01-15T22:19:47;2.80;99.90
1992;DHT22;997;48.448;8.924;2023-01-15T22:22:16;2.80;99.90
1992;DHT22;997;48.448;8.924;2023-01-15T22:24:42;2.80;99.90
1992;DHT22;997;48.448;8.924;2023-01-15T22:27:13;2.80;99.90
1992;DHT22;997;48.448;8.924;2023-01-15T22:29:40;2.80;99.90
